Other Surface Observations
Issued by NWS Great Falls, MT

Home | Current Version | Previous Version | Text Only | Print | Product List | Glossary On
Versions: 1 2 3 4 5 6 7 8 9 10 11 12 13 14 15 16 17 18 19 20 21 22 23 24 25 26 27 28 29 30 31 32 33 34 35 36 37 38 39 40 41 42 43 44 45 46 47 48 49 50
000
SXUS55 KTFX 050308
OSOTFX

AREA AWOS OBSERVATIONS
NATIONAL WEATHER SERVICE GREAT FALLS MT
0907 PM MDT Wed May 04 2016

METAR K6S8 050255Z AUTO 04000KT 40SM 21/04 A2991 RMK A01 T02110038
METAR K7S1 050255Z AUTO 11010KT 40SM 19/M03 A2996 RMK A01 T01941027
METAR K97M 050255Z AUTO 12006KT 40SM 14/05 A2997 RMK A01 T01440050
METAR K9S2 050255Z AUTO 24003KT 15SM 21/02 A2986 RMK A01 T02050022
METAR K9S5 050255Z AUTO 20000KT 40SM 17/M15 A2994 RMK A01 T01721150
METAR KRPX 050255Z AUTO 19000KT 7SM 24/M01 A2983 RMK A01 T02381011
METAR KS01 050255Z AUTO 29002KT 40SM 18/07 A2991 RMK A01 T01830072
METAR KS34 050255Z AUTO 01000KT 25SM 21/11 A2985 RMK A01 T02050111
METAR KTHM 050255Z AUTO 20000KT 40SM 21/08 A2988 RMK A01 T02110083
METAR KTHM 050155Z AUTO 26005KT 40SM 22/09 A2988 RMK A01 T02220088



USA.gov is the U.S. government's official web portal to all federal, state and local government web resources and services.